sensor_id;sensor_type;location;lat;lon;timestamp;P1;durP1;ratioP1;P2;durP2;ratioP2
10535;SDS011;5316;49.538;8.352;2023-08-21T00:00:33;7.15;;;4.57;;
10535;SDS011;5316;49.538;8.352;2023-08-21T00:03:11;3.85;;;3.60;;
10535;SDS011;5316;49.538;8.352;2023-08-21T00:05:49;5.18;;;4.53;;
10535;SDS011;5316;49.538;8.352;2023-08-21T00:08:44;4.00;;;3.72;;
10535;SDS011;5316;49.538;8.352;2023-08-21T00:11:13;4.10;;;3.70;;
10535;SDS011;5316;49.538;8.352;2023-08-21T00:13:50;4.72;;;4.38;;
10535;SDS011;5316;49.538;8.352;2023-08-21T00:16:19;6.22;;;4.28;;
10535;SDS011;5316;49.538;8.352;2023-08-21T00:18:47;4.50;;;4.10;;
10535;SDS011;5316;49.538;8.352;2023-08-21T00:21:17;4.47;;;4.07;;
10535;SDS011;5316;49.538;8.352;2023-08-21T00:23:44;6.03;;;4.45;;
10535;SDS011;5316;49.538;8.352;2023-08-21T00:26:11;5.65;;;4.13;;
10535;SDS011;5316;49.538;8.352;2023-08-21T00:28:38;3.95;;;3.58;;
10535;SDS011;5316;49.538;8.352;2023-08-21T00:31:07;7.40;;;4.00;;
10535;SDS011;5316;49.538;8.352;2023-08-21T00:33:34;3.53;;;3.33;;
10535;SDS011;5316;49.538;8.352;2023-08-21T00:36:02;4.07;;;3.70;;
10535;SDS011;5316;49.538;8.352;2023-08-21T00:38:29;4.47;;;4.00;;
10535;SDS011;5316;49.538;8.352;2023-08-21T00:40:56;4.57;;;4.18;;
10535;SDS011;5316;49.538;8.352;2023-08-21T00:43:23;5.40;;;4.18;;
10535;SDS011;5316;49.538;8.352;2023-08-21T00:45:50;4.43;;;4.13;;
10535;SDS011;5316;49.538;8.352;2023-08-21T00:48:18;4.20;;;3.85;;
10535;SDS011;5316;49.538;8.352;2023-08-21T00:50:46;4.40;;;3.90;;
10535;SDS011;5316;49.538;8.352;2023-08-21T00:53:13;6.50;;;4.47;;
10535;SDS011;5316;49.538;8.352;2023-08-21T00:55:40;4.82;;;4.30;;
10535;SDS011;5316;49.538;8.352;2023-08-21T00:58:08;3.88;;;3.60;;
10535;SDS011;5316;49.538;8.352;2023-08-21T01:00:37;4.95;;;4.03;;
10535;SDS011;5316;49.538;8.352;2023-08-21T01:03:04;4.72;;;4.30;;
10535;SDS011;5316;49.538;8.352;2023-08-21T01:05:32;4.50;;;4.10;;
10535;SDS011;5316;49.538;8.352;2023-08-21T01:08:02;5.15;;;4.63;;
10535;SDS011;5316;49.538;8.352;2023-08-21T01:10:40;5.00;;;4.50;;
10535;SDS011;5316;49.538;8.352;2023-08-21T01:13:19;5.10;;;4.70;;
10535;SDS011;5316;49.538;8.352;2023-08-21T01:15:52;5.60;;;4.63;;
10535;SDS011;5316;49.538;8.352;2023-08-21T01:18:21;5.57;;;5.07;;
10535;SDS011;5316;49.538;8.352;2023-08-21T01:20:50;4.85;;;4.45;;
10535;SDS011;5316;49.538;8.352;2023-08-21T01:23:35;4.97;;;4.60;;
10535;SDS011;5316;49.538;8.352;2023-08-21T01:26:02;5.72;;;5.22;;
10535;SDS011;5316;49.538;8.352;2023-08-21T01:28:30;5.50;;;5.00;;
10535;SDS011;5316;49.538;8.352;2023-08-21T01:30:59;5.82;;;5.30;;
10535;SDS011;5316;49.538;8.352;2023-08-21T01:33:32;5.55;;;5.03;;
10535;SDS011;5316;49.538;8.352;2023-08-21T01:36:03;5.28;;;4.88;;
10535;SDS011;5316;49.538;8.352;2023-08-21T01:38:31;5.22;;;4.82;;
10535;SDS011;5316;49.538;8.352;2023-08-21T01:41:01;5.63;;;5.13;;
10535;SDS011;5316;49.538;8.352;2023-08-21T01:43:28;8.25;;;5.68;;
10535;SDS011;5316;49.538;8.352;2023-08-21T01:45:55;5.68;;;5.15;;
10535;SDS011;5316;49.538;8.352;2023-08-21T01:48:23;6.35;;;5.82;;
10535;SDS011;5316;49.538;8.352;2023-08-21T01:50:50;6.28;;;5.88;;
10535;SDS011;5316;49.538;8.352;2023-08-21T01:53:16;6.18;;;5.57;;
10535;SDS011;5316;49.538;8.352;2023-08-21T01:55:43;6.38;;;5.88;;
10535;SDS011;5316;49.538;8.352;2023-08-21T01:58:11;5.80;;;5.35;;
10535;SDS011;5316;49.538;8.352;2023-08-21T02:00:38;6.80;;;5.78;;
10535;SDS011;5316;49.538;8.352;2023-08-21T02:03:05;8.00;;;6.40;;
10535;SDS011;5316;49.538;8.352;2023-08-21T02:05:36;5.85;;;5.28;;
10535;SDS011;5316;49.538;8.352;2023-08-21T02:08:05;6.38;;;5.88;;
10535;SDS011;5316;49.538;8.352;2023-08-21T02:10:32;6.40;;;5.90;;
10535;SDS011;5316;49.538;8.352;2023-08-21T02:12:59;6.90;;;6.32;;
10535;SDS011;5316;49.538;8.352;2023-08-21T02:15:27;6.72;;;6.22;;
10535;SDS011;5316;49.538;8.352;2023-08-21T02:17:54;6.18;;;5.72;;
10535;SDS011;5316;49.538;8.352;2023-08-21T02:20:21;6.40;;;6.00;;
10535;SDS011;5316;49.538;8.352;2023-08-21T02:22:48;7.03;;;6.32;;
10535;SDS011;5316;49.538;8.352;2023-08-21T02:25:15;6.18;;;5.78;;
10535;SDS011;5316;49.538;8.352;2023-08-21T02:27:42;6.32;;;5.93;;
10535;SDS011;5316;49.538;8.352;2023-08-21T02:30:09;6.28;;;5.72;;
10535;SDS011;5316;49.538;8.352;2023-08-21T02:32:38;7.45;;;6.55;;
10535;SDS011;5316;49.538;8.352;2023-08-21T02:35:05;8.52;;;6.18;;
10535;SDS011;5316;49.538;8.352;2023-08-21T02:37:33;7.30;;;6.68;;
10535;SDS011;5316;49.538;8.352;2023-08-21T02:40:04;7.38;;;6.82;;
10535;SDS011;5316;49.538;8.352;2023-08-21T02:42:33;6.68;;;6.18;;
10535;SDS011;5316;49.538;8.352;2023-08-21T02:45:00;6.80;;;6.20;;
10535;SDS011;5316;49.538;8.352;2023-08-21T02:47:28;7.35;;;6.85;;
10535;SDS011;5316;49.538;8.352;2023-08-21T02:49:57;8.07;;;7.38;;
10535;SDS011;5316;49.538;8.352;2023-08-21T02:52:24;6.57;;;6.07;;
10535;SDS011;5316;49.538;8.352;2023-08-21T02:54:51;7.95;;;7.13;;
10535;SDS011;5316;49.538;8.352;2023-08-21T02:57:18;7.50;;;6.80;;
10535;SDS011;5316;49.538;8.352;2023-08-21T02:59:45;7.68;;;7.13;;
10535;SDS011;5316;49.538;8.352;2023-08-21T03:02:12;7.35;;;6.75;;
10535;SDS011;5316;49.538;8.352;2023-08-21T03:04:38;7.45;;;6.75;;
10535;SDS011;5316;49.538;8.352;2023-08-21T03:07:07;7.60;;;6.78;;
10535;SDS011;5316;49.538;8.352;2023-08-21T03:09:34;7.18;;;6.63;;
10535;SDS011;5316;49.538;8.352;2023-08-21T03:12:02;11.13;;;7.30;;
10535;SDS011;5316;49.538;8.352;2023-08-21T03:14:29;7.95;;;7.35;;
10535;SDS011;5316;49.538;8.352;2023-08-21T03:16:57;7.70;;;7.03;;
10535;SDS011;5316;49.538;8.352;2023-08-21T03:19:24;8.32;;;7.63;;
10535;SDS011;5316;49.538;8.352;2023-08-21T03:21:50;7.97;;;7.28;;
10535;SDS011;5316;49.538;8.352;2023-08-21T03:24:19;7.57;;;6.88;;
10535;SDS011;5316;49.538;8.352;2023-08-21T03:26:47;8.00;;;7.30;;
10535;SDS011;5316;49.538;8.352;2023-08-21T03:29:14;8.73;;;7.22;;
10535;SDS011;5316;49.538;8.352;2023-08-21T03:31:41;7.95;;;7.32;;
10535;SDS011;5316;49.538;8.352;2023-08-21T03:34:07;8.30;;;7.45;;
10535;SDS011;5316;49.538;8.352;2023-08-21T03:36:34;8.57;;;7.80;;
10535;SDS011;5316;49.538;8.352;2023-08-21T03:39:03;8.45;;;7.63;;
10535;SDS011;5316;49.538;8.352;2023-08-21T03:41:32;7.82;;;7.05;;
10535;SDS011;5316;49.538;8.352;2023-08-21T03:43:59;8.10;;;7.40;;
10535;SDS011;5316;49.538;8.352;2023-08-21T03:46:25;7.68;;;7.18;;
10535;SDS011;5316;49.538;8.352;2023-08-21T03:48:52;8.98;;;8.23;;
10535;SDS011;5316;49.538;8.352;2023-08-21T03:51:19;8.35;;;7.55;;
10535;SDS011;5316;49.538;8.352;2023-08-21T03:53:46;8.07;;;7.38;;
10535;SDS011;5316;49.538;8.352;2023-08-21T03:56:13;8.60;;;7.80;;
10535;SDS011;5316;49.538;8.352;2023-08-21T03:58:42;8.00;;;7.35;;
10535;SDS011;5316;49.538;8.352;2023-08-21T04:01:09;10.13;;;9.23;;
10535;SDS011;5316;49.538;8.352;2023-08-21T04:03:36;8.38;;;7.70;;
10535;SDS011;5316;49.538;8.352;2023-08-21T04:06:03;8.10;;;7.43;;
10535;SDS011;5316;49.538;8.352;2023-08-21T04:08:30;8.48;;;7.72;;
10535;SDS011;5316;49.538;8.352;2023-08-21T04:10:57;7.55;;;6.93;;
10535;SDS011;5316;49.538;8.352;2023-08-21T04:13:26;8.40;;;7.70;;
10535;SDS011;5316;49.538;8.352;2023-08-21T04:15:54;8.50;;;7.63;;
10535;SDS011;5316;49.538;8.352;2023-08-21T04:18:21;8.35;;;7.10;;
10535;SDS011;5316;49.538;8.352;2023-08-21T04:20:48;8.50;;;7.80;;
10535;SDS011;5316;49.538;8.352;2023-08-21T04:23:15;17.73;;;14.55;;
10535;SDS011;5316;49.538;8.352;2023-08-21T04:25:42;10.05;;;8.45;;
10535;SDS011;5316;49.538;8.352;2023-08-21T04:28:09;9.32;;;7.97;;
10535;SDS011;5316;49.538;8.352;2023-08-21T04:30:39;8.35;;;7.75;;
10535;SDS011;5316;49.538;8.352;2023-08-21T04:33:08;8.93;;;8.23;;
10535;SDS011;5316;49.538;8.352;2023-08-21T04:35:38;9.10;;;8.40;;
10535;SDS011;5316;49.538;8.352;2023-08-21T04:38:05;9.23;;;8.35;;
10535;SDS011;5316;49.538;8.352;2023-08-21T04:40:33;8.68;;;7.88;;
10535;SDS011;5316;49.538;8.352;2023-08-21T04:43:00;8.45;;;7.75;;
10535;SDS011;5316;49.538;8.352;2023-08-21T04:45:26;8.55;;;7.85;;
10535;SDS011;5316;49.538;8.352;2023-08-21T04:47:53;9.25;;;8.45;;
10535;SDS011;5316;49.538;8.352;2023-08-21T04:50:22;8.95;;;8.25;;
10535;SDS011;5316;49.538;8.352;2023-08-21T04:52:49;9.95;;;8.98;;
10535;SDS011;5316;49.538;8.352;2023-08-21T04:55:16;9.93;;;8.90;;
10535;SDS011;5316;49.538;8.352;2023-08-21T05:10:28;10.88;;;8.48;;
10535;SDS011;5316;49.538;8.352;2023-08-21T05:21:00;9.70;;;8.70;;
10535;SDS011;5316;49.538;8.352;2023-08-21T05:38:00;9.80;;;8.80;;
10535;SDS011;5316;49.538;8.352;2023-08-21T05:40:27;9.68;;;8.70;;
10535;SDS011;5316;49.538;8.352;2023-08-21T05:49:13;8.68;;;8.00;;
10535;SDS011;5316;49.538;8.352;2023-08-21T05:53:35;8.30;;;7.60;;
10535;SDS011;5316;49.538;8.352;2023-08-21T05:55:31;8.60;;;7.78;;
10535;SDS011;5316;49.538;8.352;2023-08-21T05:58:15;9.77;;;8.57;;
10535;SDS011;5316;49.538;8.352;2023-08-21T06:00:59;8.63;;;7.78;;
